Main page
METAR-TAF:

METAR-TAF

Airports :

Quillayute Airport

Forks, Washington, United States

latitude: 47-56-15N, longitude: 124-33-18W, elevation: 194 ft

Current weather observation

The report was made 53 minutes ago, at 18:03 UTC
Wind 6 mph from the South/Southwest
Temperature 55°F
Humidity 94%
Pressure 30.05 in. Hg
Visibility: 9 miles
Broken clouds at a height of 900 ft
Broken clouds at a height of 1800 ft
Overcast at a height of 5000 ft
light rain

METAR: KUIL 231803Z AUTO 21005KT 9SM -RA BKN009 BKN018 OVC050 13/12 A3005 RMK AO2 RAB1759 P0000 T01330122 $

Time: 11:56 (18:56 UTC)


TAF: missing

Weather observations and forecasts of more than 4000 airports (METAR and TAF reports).

The available stations are represented by yellow and red dots on the map.

Hover mouse over dot to see the name of the station.

Then click to see weather observations and forecasts.

To change the map : click on the green buttons with a black cross to zoom in, on the green button with a dash to zoom out, or on the green arrows for adjacent maps.


METAR-TAF: